Parker, South Dakota
Current Conditions -  °F | °C
As of 9:56 AM on Tuesday 21 Oct 2014 (Local Time) from KFSD Reporting Station
Clear Clear  
Wind Chill: 54°   Ceiling: Unl
Heat Index: 54°   Visibility: 10mi
Dew Point: 41°   Wind: 8mph
Humidity: 62%   Direction: 130°SE
Pressure: 30.07"   Gusts: NA
Location:  43.4°N, 97.14°W
Report Text: KFSD 211456Z 13007KT 10SM CLR 12/05 A3007 RMK AO2 SLP189 T01220050 56004
Loading
Personal Weather Stations






























Interactive Weather Map
Tropical Storm Tracking
New forecast layout! Learn more

10-Day Weather Forecast

Advertisements
Track Severe Weather on mobile